Time;durP1;ratioP1;P1;durP2;ratioP2;P2;SDS_P1;SDS_P2;PMS_P1;PMS_P2;Temp;Humidity;BMP_temperature;BMP_pressure;BME280_temperature;BME280_humidity;BME280_pressure;Samples;Min_cycle;Max_cycle;Signal;HPM_P1;HPM_P2
2023/01/28 00:00:25;;;;;;;;;;;10.00;95.20;;;;;;4589431;19;19911;-34
2023/01/28 00:02:16;;;;;;;;;;;10.00;95.20;;;;;;4592119;19;19937;-34
2023/01/28 00:03:53;;;;;;;;;;;10.00;95.20;;;;;;4591506;19;19926;-33
2023/01/28 00:05:24;;;;;;;;;;;10.00;95.30;;;;;;4592231;19;19915;-33
2023/01/28 00:06:55;;;;;;;;;;;9.90;95.10;;;;;;4592211;19;19980;-33
2023/01/28 00:08:26;;;;;;;;;;;9.90;95.20;;;;;;4592040;19;19994;-33
2023/01/28 00:09:57;;;;;;;;;;;10.00;95.10;;;;;;4591611;19;20249;-34
2023/01/28 00:11:28;;;;;;;;;;;9.90;95.20;;;;;;4592029;19;19906;-33
2023/01/28 00:12:59;;;;;;;;;;;9.90;95.60;;;;;;4591438;19;19970;-33
2023/01/28 00:14:31;;;;;;;;;;;10.00;95.80;;;;;;4591495;19;19915;-34
2023/01/28 00:16:03;;;;;;;;;;;10.00;95.80;;;;;;4591375;19;19915;-35
2023/01/28 00:17:35;;;;;;;;;;;10.10;95.90;;;;;;4591926;19;20264;-34
2023/01/28 00:19:07;;;;;;;;;;;10.20;95.70;;;;;;4592149;19;20260;-34
2023/01/28 00:20:38;;;;;;;;;;;10.20;95.40;;;;;;4591347;19;19970;-33
2023/01/28 00:22:09;;;;;;;;;;;10.20;95.20;;;;;;4591643;19;19923;-33
2023/01/28 00:23:41;;;;;;;;;;;10.20;95.20;;;;;;4591986;19;19911;-34
2023/01/28 00:25:12;;;;;;;;;;;10.10;95.10;;;;;;4592048;19;19910;-34
2023/01/28 00:26:44;;;;;;;;;;;10.10;95.00;;;;;;4591451;19;20310;-34
2023/01/28 00:28:15;;;;;;;;;;;10.10;95.20;;;;;;4591066;19;19927;-34
2023/01/28 00:29:47;;;;;;;;;;;10.10;95.10;;;;;;4591520;19;20343;-33
2023/01/28 00:31:22;;;;;;;;;;;10.10;95.10;;;;;;4591536;19;20329;-34
2023/01/28 00:32:54;;;;;;;;;;;10.10;95.10;;;;;;4591479;19;19951;-33
2023/01/28 00:34:25;;;;;;;;;;;10.10;95.20;;;;;;4591706;19;19918;-33
2023/01/28 00:35:57;;;;;;;;;;;10.10;95.20;;;;;;4591586;19;19990;-33
2023/01/28 00:37:28;;;;;;;;;;;10.10;95.20;;;;;;4590002;19;19919;-33
2023/01/28 00:39:00;;;;;;;;;;;10.10;95.30;;;;;;4590701;19;19926;-35
2023/01/28 00:40:31;;;;;;;;;;;10.10;95.10;;;;;;4591668;19;19918;-34
2023/01/28 00:42:02;;;;;;;;;;;10.10;95.10;;;;;;4591769;19;19938;-34
2023/01/28 00:43:33;;;;;;;;;;;10.10;95.00;;;;;;4590992;19;19911;-35
2023/01/28 00:45:05;;;;;;;;;;;10.10;94.90;;;;;;4590224;19;19942;-34
2023/01/28 00:46:36;;;;;;;;;;;10.10;95.10;;;;;;4590232;19;19915;-34
2023/01/28 00:48:07;;;;;;;;;;;10.10;95.00;;;;;;4590748;19;19922;-34
2023/01/28 00:49:38;;;;;;;;;;;10.10;95.20;;;;;;4590843;19;19915;-33
2023/01/28 00:51:10;;;;;;;;;;;10.10;95.10;;;;;;4590104;19;20402;-35
2023/01/28 00:52:41;;;;;;;;;;;10.10;95.00;;;;;;4590440;19;19922;-34
2023/01/28 00:54:12;;;;;;;;;;;10.10;94.90;;;;;;4591301;19;19914;-35
2023/01/28 00:55:43;;;;;;;;;;;10.10;95.00;;;;;;4591009;19;19915;-34
2023/01/28 00:57:14;;;;;;;;;;;10.10;94.80;;;;;;4590390;19;20293;-33
2023/01/28 00:58:46;;;;;;;;;;;10.10;94.90;;;;;;4591533;19;19923;-34
2023/01/28 01:00:19;;;;;;;;;;;10.10;94.60;;;;;;4590725;19;20272;-34
2023/01/28 01:01:50;;;;;;;;;;;10.10;94.50;;;;;;4590901;19;19915;-34
2023/01/28 01:03:21;;;;;;;;;;;10.10;94.70;;;;;;4591375;19;19953;-34
2023/01/28 01:04:58;;;;;;;;;;;10.10;94.70;;;;;;4591399;19;19915;-35
2023/01/28 01:06:30;;;;;;;;;;;10.10;94.60;;;;;;4589357;19;19926;-34
2023/01/28 01:08:01;;;;;;;;;;;10.10;94.60;;;;;;4589730;19;19934;-34
2023/01/28 01:09:32;;;;;;;;;;;10.10;94.60;;;;;;4590325;19;19907;-34
2023/01/28 01:11:03;;;;;;;;;;;10.10;94.60;;;;;;4590908;19;19927;-34
2023/01/28 01:12:35;;;;;;;;;;;10.10;94.70;;;;;;4590171;19;19919;-34
2023/01/28 01:14:06;;;;;;;;;;;10.10;94.70;;;;;;4589856;19;19948;-34
2023/01/28 01:15:37;;;;;;;;;;;10.10;94.70;;;;;;4593276;19;19910;-34
2023/01/28 01:17:08;;;;;;;;;;;10.00;94.70;;;;;;4594078;19;19932;-33
2023/01/28 01:18:42;;;;;;;;;;;10.10;94.80;;;;;;4594248;19;19914;-34
2023/01/28 01:20:14;;;;;;;;;;;10.10;94.60;;;;;;4594881;19;19918;-33
2023/01/28 01:21:49;;;;;;;;;;;10.10;94.70;;;;;;4595828;19;19978;-34
2023/01/28 01:23:20;;;;;;;;;;;10.10;94.60;;;;;;4595005;19;19918;-34
2023/01/28 01:24:51;;;;;;;;;;;10.10;94.60;;;;;;4595196;19;19937;-33
2023/01/28 01:26:22;;;;;;;;;;;10.10;94.80;;;;;;4595701;19;20380;-34
2023/01/28 01:27:53;;;;;;;;;;;10.10;94.90;;;;;;4594043;19;19934;-33
2023/01/28 01:29:24;;;;;;;;;;;10.00;94.80;;;;;;4594445;19;19919;-33
2023/01/28 01:31:04;;;;;;;;;;;10.00;94.70;;;;;;4595143;19;19921;-34
2023/01/28 01:32:34;;;;;;;;;;;10.10;94.70;;;;;;4595394;19;19978;-34
2023/01/28 01:34:06;;;;;;;;;;;10.00;94.60;;;;;;4595209;19;19911;-33
2023/01/28 01:35:37;;;;;;;;;;;10.10;94.50;;;;;;4594705;19;19922;-34
2023/01/28 01:37:09;;;;;;;;;;;10.10;94.60;;;;;;4593839;19;20229;-33
2023/01/28 01:38:40;;;;;;;;;;;10.00;94.60;;;;;;4594626;19;19915;-33
2023/01/28 01:40:11;;;;;;;;;;;10.00;94.60;;;;;;4593446;19;19915;-34
2023/01/28 01:41:43;;;;;;;;;;;10.10;94.60;;;;;;4594390;19;19918;-33
2023/01/28 01:43:17;;;;;;;;;;;10.10;94.60;;;;;;4594969;19;19918;-34
2023/01/28 01:44:56;;;;;;;;;;;10.10;94.60;;;;;;4594834;19;20302;-34
2023/01/28 01:46:32;;;;;;;;;;;10.10;94.60;;;;;;4595418;19;19923;-34
2023/01/28 01:48:29;;;;;;;;;;;10.10;94.50;;;;;;4593563;19;19951;-34
2023/01/28 01:50:02;;;;;;;;;;;10.10;94.70;;;;;;4594161;19;19947;-35
2023/01/28 01:51:33;;;;;;;;;;;10.10;94.60;;;;;;4593899;19;19923;-35
2023/01/28 01:53:10;;;;;;;;;;;10.10;94.50;;;;;;4593641;19;19955;-33
2023/01/28 01:54:43;;;;;;;;;;;10.10;94.60;;;;;;4593876;19;19915;-34
2023/01/28 01:56:15;;;;;;;;;;;10.00;94.50;;;;;;4593867;19;19914;-34
2023/01/28 01:57:47;;;;;;;;;;;10.10;94.60;;;;;;4593382;19;19923;-35
2023/01/28 01:59:21;;;;;;;;;;;10.10;94.50;;;;;;4593270;19;19918;-34
2023/01/28 02:00:52;;;;;;;;;;;10.10;94.50;;;;;;4592503;19;19925;-34
2023/01/28 02:02:23;;;;;;;;;;;10.10;94.40;;;;;;4593263;19;20341;-34
2023/01/28 02:03:56;;;;;;;;;;;10.10;94.30;;;;;;4592107;19;20245;-33
2023/01/28 02:05:27;;;;;;;;;;;10.10;94.50;;;;;;4592797;19;19923;-34
2023/01/28 02:06:59;;;;;;;;;;;10.10;94.50;;;;;;4591902;19;19915;-33
2023/01/28 02:08:30;;;;;;;;;;;10.10;94.40;;;;;;4592151;19;19948;-34
2023/01/28 02:10:01;;;;;;;;;;;10.10;94.40;;;;;;4592406;19;19926;-34
2023/01/28 02:11:32;;;;;;;;;;;10.10;94.20;;;;;;4592450;19;19948;-34
2023/01/28 02:13:03;;;;;;;;;;;10.10;94.40;;;;;;4591057;19;19977;-35
2023/01/28 02:14:35;;;;;;;;;;;10.10;94.30;;;;;;4592149;19;19923;-33
2023/01/28 02:16:06;;;;;;;;;;;10.10;94.50;;;;;;4591839;19;20387;-33
2023/01/28 02:17:37;;;;;;;;;;;10.00;94.40;;;;;;4590433;19;19986;-34
2023/01/28 02:19:08;;;;;;;;;;;10.00;94.70;;;;;;4591677;19;20353;-33
2023/01/28 02:20:58;;;;;;;;;;;10.00;94.90;;;;;;4591992;19;20025;-34
2023/01/28 02:22:32;;;;;;;;;;;10.00;95.10;;;;;;4591768;19;19970;-34
2023/01/28 02:24:05;;;;;;;;;;;10.00;95.20;;;;;;4592185;19;20004;-35
2023/01/28 02:25:59;;;;;;;;;;;10.00;95.10;;;;;;4591769;19;19914;-34
2023/01/28 02:27:47;;;;;;;;;;;10.00;95.00;;;;;;4589191;19;19915;-34
2023/01/28 02:29:25;;;;;;;;;;;10.10;95.10;;;;;;4591571;19;20194;-32
2023/01/28 02:30:57;;;;;;;;;;;10.00;94.70;;;;;;4591792;19;20267;-34
2023/01/28 02:32:37;;;;;;;;;;;10.00;94.80;;;;;;4591900;19;19914;-34
2023/01/28 02:34:29;;;;;;;;;;;10.00;94.70;;;;;;4591308;19;19915;-34
2023/01/28 02:36:02;;;;;;;;;;;10.10;94.70;;;;;;4590822;19;19927;-34
2023/01/28 02:37:36;;;;;;;;;;;10.20;94.80;;;;;;4590148;19;19921;-35
2023/01/28 02:39:09;;;;;;;;;;;10.20;94.60;;;;;;4589925;19;19926;-33
2023/01/28 02:42:48;;;;;;;;;;;10.20;94.40;;;;;;4591038;19;19994;-34
2023/01/28 02:44:19;;;;;;;;;;;10.20;94.50;;;;;;4591109;19;19920;-35
2023/01/28 02:47:58;;;;;;;;;;;10.20;94.30;;;;;;4591558;19;19990;-33
2023/01/28 02:49:29;;;;;;;;;;;10.20;94.40;;;;;;4590946;19;19914;-35
2023/01/28 02:51:05;;;;;;;;;;;10.20;94.50;;;;;;4591394;19;20004;-33
2023/01/28 02:54:38;;;;;;;;;;;10.20;94.20;;;;;;4591295;19;19918;-34
2023/01/28 02:56:15;;;;;;;;;;;10.20;94.10;;;;;;4591330;19;19915;-33
2023/01/28 02:57:50;;;;;;;;;;;10.20;94.10;;;;;;4591130;19;19938;-34
2023/01/28 02:59:30;;;;;;;;;;;10.20;94.00;;;;;;4591295;19;19915;-34
2023/01/28 03:01:09;;;;;;;;;;;10.20;94.20;;;;;;4590847;19;19918;-35
2023/01/28 03:02:49;;;;;;;;;;;10.20;94.30;;;;;;4590716;19;19990;-34
2023/01/28 03:04:26;;;;;;;;;;;10.20;94.20;;;;;;4591003;19;19919;-34
2023/01/28 03:06:07;;;;;;;;;;;10.20;94.10;;;;;;4590733;19;19922;-34
2023/01/28 03:07:39;;;;;;;;;;;10.20;94.30;;;;;;4590768;19;20283;-34
2023/01/28 03:09:23;;;;;;;;;;;10.20;94.20;;;;;;4590609;19;19914;-33
2023/01/28 03:36:52;;;;;;;;;;;10.20;93.80;;;;;;4592537;19;19915;-34
2023/01/28 03:38:24;;;;;;;;;;;10.20;93.90;;;;;;4591089;19;20299;-34
2023/01/28 03:39:57;;;;;;;;;;;10.20;93.80;;;;;;4592706;19;20318;-34
2023/01/28 03:41:28;;;;;;;;;;;10.20;93.80;;;;;;4591380;19;19919;-33
2023/01/28 03:42:59;;;;;;;;;;;10.20;94.10;;;;;;4591973;19;20355;-34
2023/01/28 03:46:21;;;;;;;;;;;10.10;93.60;;;;;;4592256;19;19919;-34
2023/01/28 03:47:51;;;;;;;;;;;8.80;93.90;;;;;;4592619;19;19926;-34
2023/01/28 03:49:23;;;;;;;;;;;6.70;96.90;;;;;;4592724;19;19917;-33
2023/01/28 03:50:54;;;;;;;;;;;6.00;98.80;;;;;;4591937;19;20324;-32
2023/01/28 03:52:26;;;;;;;;;;;5.60;99.60;;;;;;4590928;19;19928;-33
2023/01/28 03:53:57;;;;;;;;;;;5.40;99.70;;;;;;4590908;19;19915;-32
2023/01/28 03:55:28;;;;;;;;;;;5.40;99.30;;;;;;4591899;19;19917;-34
2023/01/28 03:56:59;;;;;;;;;;;6.50;98.90;;;;;;4590921;19;20524;-34
2023/01/28 04:00:31;;;;;;;;;;;8.10;97.00;;;;;;4591260;19;19919;-34
2023/01/28 04:02:03;;;;;;;;;;;8.70;96.40;;;;;;4590970;19;19914;-33
2023/01/28 04:03:34;;;;;;;;;;;8.90;95.80;;;;;;4589211;19;19926;-35
2023/01/28 04:05:12;;;;;;;;;;;9.10;95.50;;;;;;4591420;19;19910;-34
2023/01/28 04:06:43;;;;;;;;;;;9.20;95.30;;;;;;4592383;19;19918;-34
2023/01/28 04:08:14;;;;;;;;;;;9.30;95.00;;;;;;4591074;19;20274;-33
2023/01/28 04:09:45;;;;;;;;;;;9.30;94.90;;;;;;4589311;19;19923;-33
2023/01/28 04:11:18;;;;;;;;;;;9.40;94.90;;;;;;4589675;19;19921;-34
2023/01/28 04:12:53;;;;;;;;;;;9.40;94.90;;;;;;4589485;19;19914;-33
2023/01/28 04:14:24;;;;;;;;;;;9.40;95.10;;;;;;4589859;19;19918;-34
2023/01/28 04:15:55;;;;;;;;;;;9.50;94.80;;;;;;4589258;19;19921;-34
2023/01/28 04:17:26;;;;;;;;;;;9.50;94.80;;;;;;4588564;19;19942;-34
2023/01/28 04:18:58;;;;;;;;;;;9.50;94.70;;;;;;4589636;19;19911;-34
2023/01/28 04:20:29;;;;;;;;;;;9.50;94.50;;;;;;4589598;19;20244;-34
2023/01/28 04:22:00;;;;;;;;;;;9.40;95.30;;;;;;4589084;19;20005;-33
2023/01/28 04:23:31;;;;;;;;;;;9.40;94.80;;;;;;4588977;19;19921;-33
2023/01/28 04:25:04;;;;;;;;;;;9.50;94.90;;;;;;4589180;19;19970;-33
2023/01/28 04:26:36;;;;;;;;;;;9.50;95.00;;;;;;4589242;19;19919;-33
2023/01/28 04:28:10;;;;;;;;;;;9.50;95.00;;;;;;4588038;19;19919;-35
2023/01/28 04:29:41;;;;;;;;;;;9.60;94.90;;;;;;4589175;19;19923;-33
2023/01/28 04:31:12;;;;;;;;;;;9.60;94.60;;;;;;4589148;19;20000;-34
2023/01/28 04:32:45;;;;;;;;;;;9.60;94.60;;;;;;4589055;19;20387;-35
2023/01/28 04:34:16;;;;;;;;;;;9.70;94.70;;;;;;4589233;19;19943;-33
2023/01/28 04:35:47;;;;;;;;;;;9.70;94.60;;;;;;4589031;19;19919;-34
2023/01/28 04:37:18;;;;;;;;;;;9.70;94.50;;;;;;4589603;19;19911;-35
2023/01/28 04:38:49;;;;;;;;;;;9.70;94.50;;;;;;4590525;19;19922;-35
2023/01/28 04:40:21;;;;;;;;;;;9.80;94.50;;;;;;4591804;19;19932;-34
2023/01/28 04:41:52;;;;;;;;;;;9.60;94.50;;;;;;4591708;19;19915;-34
2023/01/28 04:43:23;;;;;;;;;;;9.60;95.40;;;;;;4591402;19;20317;-34
2023/01/28 04:44:54;;;;;;;;;;;9.60;94.70;;;;;;4591362;19;20316;-33
2023/01/28 04:46:25;;;;;;;;;;;9.60;94.60;;;;;;4591657;19;19943;-34
2023/01/28 04:47:56;;;;;;;;;;;9.60;94.50;;;;;;4591330;19;19914;-33
2023/01/28 04:49:27;;;;;;;;;;;9.60;94.40;;;;;;4589506;19;19925;-33
2023/01/28 04:50:58;;;;;;;;;;;9.60;94.40;;;;;;4590192;19;19919;-34
2023/01/28 04:52:29;;;;;;;;;;;9.70;94.20;;;;;;4589626;19;19918;-33
2023/01/28 04:54:01;;;;;;;;;;;9.70;94.20;;;;;;4590997;19;19941;-33
2023/01/28 04:55:32;;;;;;;;;;;9.70;94.60;;;;;;4588371;19;19923;-34
2023/01/28 04:57:03;;;;;;;;;;;9.70;94.30;;;;;;4589873;19;19919;-34
2023/01/28 04:58:34;;;;;;;;;;;9.70;94.40;;;;;;4591671;19;19915;-34
2023/01/28 05:00:05;;;;;;;;;;;9.70;94.50;;;;;;4591480;19;19918;-34
2023/01/28 05:01:36;;;;;;;;;;;9.70;94.40;;;;;;4590954;19;19919;-33
2023/01/28 05:03:07;;;;;;;;;;;9.70;94.40;;;;;;4591197;19;19956;-34
2023/01/28 05:04:38;;;;;;;;;;;9.70;94.60;;;;;;4591402;19;19907;-33
2023/01/28 05:06:09;;;;;;;;;;;9.70;94.20;;;;;;4590480;19;19926;-33
2023/01/28 05:07:41;;;;;;;;;;;9.70;94.20;;;;;;4590661;19;20272;-34
2023/01/28 05:09:12;;;;;;;;;;;9.60;94.00;;;;;;4589679;19;19923;-34
2023/01/28 05:10:43;;;;;;;;;;;9.70;94.30;;;;;;4590384;19;19938;-34
2023/01/28 05:12:14;;;;;;;;;;;9.70;94.50;;;;;;4590570;19;19932;-34
2023/01/28 05:13:45;;;;;;;;;;;9.70;94.40;;;;;;4589264;19;19918;-35
2023/01/28 05:15:16;;;;;;;;;;;9.70;94.20;;;;;;4591075;19;20313;-33
2023/01/28 05:16:48;;;;;;;;;;;9.80;94.40;;;;;;4590731;19;19936;-34
2023/01/28 05:18:19;;;;;;;;;;;9.80;94.60;;;;;;4590397;19;20321;-34
2023/01/28 05:19:50;;;;;;;;;;;9.80;94.50;;;;;;4590492;19;19911;-34
2023/01/28 05:21:22;;;;;;;;;;;9.70;94.20;;;;;;4590672;19;19929;-33
2023/01/28 05:22:52;;;;;;;;;;;9.80;94.50;;;;;;4590414;19;20344;-34
2023/01/28 05:24:23;;;;;;;;;;;9.80;94.50;;;;;;4590593;19;19919;-33
2023/01/28 05:25:55;;;;;;;;;;;9.80;94.40;;;;;;4590869;19;20266;-34
2023/01/28 05:27:26;;;;;;;;;;;9.80;94.20;;;;;;4590413;19;19910;-34
2023/01/28 05:28:57;;;;;;;;;;;9.70;94.30;;;;;;4590381;19;19911;-35
2023/01/28 05:30:28;;;;;;;;;;;9.80;94.30;;;;;;4590869;19;19918;-33
2023/01/28 05:31:59;;;;;;;;;;;9.80;94.30;;;;;;4590791;19;19917;-34
2023/01/28 05:33:30;;;;;;;;;;;9.80;94.10;;;;;;4590765;19;20240;-35
2023/01/28 05:35:01;;;;;;;;;;;9.80;94.50;;;;;;4590297;19;19921;-34
2023/01/28 05:36:32;;;;;;;;;;;9.80;94.30;;;;;;4590264;19;19941;-34
2023/01/28 05:38:03;;;;;;;;;;;9.70;94.20;;;;;;4590418;19;19914;-33
2023/01/28 05:39:35;;;;;;;;;;;9.70;94.20;;;;;;4589066;19;19927;-33
2023/01/28 05:41:06;;;;;;;;;;;9.70;94.20;;;;;;4590045;19;19915;-34
2023/01/28 05:42:36;;;;;;;;;;;9.70;94.10;;;;;;4590546;19;20407;-35
2023/01/28 05:44:08;;;;;;;;;;;9.80;94.30;;;;;;4589427;19;19977;-33
2023/01/28 05:45:39;;;;;;;;;;;9.80;94.10;;;;;;4589574;19;19938;-34
2023/01/28 05:47:10;;;;;;;;;;;9.80;94.30;;;;;;4589983;19;20264;-33
2023/01/28 05:48:41;;;;;;;;;;;9.80;94.20;;;;;;4590175;19;20318;-34
2023/01/28 05:50:12;;;;;;;;;;;9.70;94.00;;;;;;4590659;19;19922;-33
2023/01/28 05:51:43;;;;;;;;;;;9.70;94.10;;;;;;4588922;19;19930;-34
2023/01/28 05:53:15;;;;;;;;;;;9.80;94.10;;;;;;4589449;19;20373;-34
2023/01/28 05:54:46;;;;;;;;;;;9.70;93.60;;;;;;4590723;19;19925;-34
2023/01/28 05:56:17;;;;;;;;;;;9.70;93.80;;;;;;4590296;19;19910;-34
2023/01/28 05:57:48;;;;;;;;;;;9.70;93.90;;;;;;4588603;19;19974;-33
2023/01/28 05:59:19;;;;;;;;;;;9.80;93.80;;;;;;4589240;19;19918;-34
2023/01/28 06:00:53;;;;;;;;;;;9.80;94.10;;;;;;4589184;19;19915;-34
2023/01/28 06:02:24;;;;;;;;;;;9.80;93.90;;;;;;4594010;19;19974;-33
2023/01/28 06:03:55;;;;;;;;;;;9.80;94.10;;;;;;4594281;19;19911;-34
2023/01/28 06:05:26;;;;;;;;;;;9.80;94.10;;;;;;4594836;19;19910;-33
2023/01/28 06:06:57;;;;;;;;;;;9.70;93.90;;;;;;4594906;19;19922;-34
2023/01/28 06:08:28;;;;;;;;;;;9.70;93.80;;;;;;4593068;19;19940;-34
2023/01/28 06:09:59;;;;;;;;;;;9.70;93.80;;;;;;4594001;19;19926;-34
2023/01/28 06:11:30;;;;;;;;;;;9.70;93.90;;;;;;4594312;19;19990;-34
2023/01/28 06:13:01;;;;;;;;;;;9.80;93.80;;;;;;4593887;19;19914;-33
2023/01/28 06:14:32;;;;;;;;;;;9.80;94.10;;;;;;4593905;19;20313;-33
2023/01/28 06:16:04;;;;;;;;;;;9.70;93.70;;;;;;4593462;19;19911;-34
2023/01/28 06:17:35;;;;;;;;;;;9.80;93.90;;;;;;4592487;19;19918;-33
2023/01/28 06:19:06;;;;;;;;;;;9.80;93.90;;;;;;4594194;19;20327;-34
2023/01/28 06:20:37;;;;;;;;;;;9.80;93.80;;;;;;4594190;19;19978;-33
2023/01/28 06:22:08;;;;;;;;;;;9.80;93.60;;;;;;4594131;19;20336;-33
2023/01/28 06:23:39;;;;;;;;;;;9.70;93.40;;;;;;4591763;19;19929;-33
2023/01/28 06:25:10;;;;;;;;;;;9.70;93.70;;;;;;4593183;19;20321;-34
2023/01/28 06:26:41;;;;;;;;;;;9.70;93.70;;;;;;4594119;19;19930;-35
2023/01/28 06:28:12;;;;;;;;;;;9.70;93.80;;;;;;4593587;19;19919;-33
2023/01/28 06:29:44;;;;;;;;;;;9.70;93.40;;;;;;4593995;19;19991;-33
2023/01/28 06:31:15;;;;;;;;;;;9.80;93.70;;;;;;4593184;19;20252;-33
2023/01/28 06:32:46;;;;;;;;;;;9.80;93.80;;;;;;4594456;19;20275;-33
2023/01/28 06:34:17;;;;;;;;;;;9.70;93.60;;;;;;4593888;19;20263;-33
2023/01/28 06:35:48;;;;;;;;;;;9.70;93.50;;;;;;4593456;19;19919;-34
2023/01/28 06:37:19;;;;;;;;;;;9.70;93.30;;;;;;4592052;19;19922;-33
2023/01/28 06:38:51;;;;;;;;;;;9.60;93.30;;;;;;4591824;19;19939;-34
2023/01/28 06:40:23;;;;;;;;;;;9.60;93.40;;;;;;4592471;19;19907;-33
2023/01/28 06:41:54;;;;;;;;;;;9.60;93.10;;;;;;4592288;19;19935;-34
2023/01/28 06:43:29;;;;;;;;;;;9.60;93.00;;;;;;4591986;19;19923;-34
2023/01/28 06:45:01;;;;;;;;;;;9.60;93.20;;;;;;4590644;19;19917;-34
2023/01/28 06:46:32;;;;;;;;;;;9.60;93.20;;;;;;4594452;19;19929;-33
2023/01/28 06:48:03;;;;;;;;;;;9.60;93.50;;;;;;4593822;19;19934;-34
2023/01/28 06:49:34;;;;;;;;;;;9.60;93.30;;;;;;4593653;19;19923;-34
2023/01/28 06:51:05;;;;;;;;;;;9.70;93.70;;;;;;4592991;19;20241;-33
2023/01/28 06:52:37;;;;;;;;;;;9.60;93.40;;;;;;4591422;19;19994;-34
2023/01/28 06:54:08;;;;;;;;;;;9.60;93.20;;;;;;4590529;19;19944;-33
2023/01/28 06:55:39;;;;;;;;;;;9.70;93.40;;;;;;4593004;19;19978;-35
2023/01/28 06:57:10;;;;;;;;;;;9.60;93.10;;;;;;4593063;19;19918;-34
2023/01/28 06:58:41;;;;;;;;;;;9.70;93.10;;;;;;4593818;19;19919;-31
2023/01/28 07:00:14;;;;;;;;;;;9.70;93.10;;;;;;4593755;19;19916;-35
2023/01/28 07:01:45;;;;;;;;;;;9.70;93.20;;;;;;4592358;19;19922;-32
2023/01/28 07:03:16;;;;;;;;;;;9.80;93.20;;;;;;4593004;19;19922;-34
2023/01/28 07:04:47;;;;;;;;;;;9.80;93.10;;;;;;4592539;19;19934;-33
2023/01/28 07:06:19;;;;;;;;;;;9.80;93.10;;;;;;4591028;19;19919;-33
2023/01/28 07:07:50;;;;;;;;;;;9.90;93.10;;;;;;4591020;19;19911;-34
2023/01/28 07:09:21;;;;;;;;;;;9.90;93.30;;;;;;4591943;19;20368;-34
2023/01/28 07:10:52;;;;;;;;;;;9.90;93.50;;;;;;4593892;19;19921;-33
2023/01/28 07:12:23;;;;;;;;;;;10.00;93.40;;;;;;4592750;19;19922;-34
2023/01/28 07:13:54;;;;;;;;;;;10.00;93.40;;;;;;4591267;19;19914;-34
2023/01/28 07:15:26;;;;;;;;;;;10.00;93.00;;;;;;4593304;19;19927;-34
2023/01/28 07:16:57;;;;;;;;;;;10.00;92.90;;;;;;4590903;19;20332;-33
2023/01/28 07:18:28;;;;;;;;;;;9.90;92.90;;;;;;4592086;19;19986;-34
2023/01/28 07:20:00;;;;;;;;;;;9.90;92.50;;;;;;4590480;19;19918;-34
2023/01/28 07:21:31;;;;;;;;;;;9.10;93.00;;;;;;4591401;19;20341;-33
2023/01/28 07:23:02;;;;;;;;;;;7.00;95.50;;;;;;4592380;19;19915;-34
2023/01/28 07:24:33;;;;;;;;;;;6.00;96.80;;;;;;4591068;19;20348;-33
2023/01/28 07:26:04;;;;;;;;;;;5.60;97.50;;;;;;4592157;19;19926;-35
2023/01/28 07:27:35;;;;;;;;;;;5.40;98.30;;;;;;4592862;19;19921;-31
2023/01/28 07:29:07;;;;;;;;;;;5.30;98.50;;;;;;4592841;19;20345;-32
2023/01/28 07:30:38;;;;;;;;;;;5.20;98.40;;;;;;4592423;19;19919;-33
2023/01/28 07:32:10;;;;;;;;;;;5.20;99.10;;;;;;4592194;19;20234;-33
2023/01/28 07:33:41;;;;;;;;;;;5.20;99.30;;;;;;4591812;19;19933;-32
2023/01/28 07:35:12;;;;;;;;;;;5.10;99.00;;;;;;4591622;19;19915;-33
2023/01/28 07:36:43;;;;;;;;;;;5.10;98.50;;;;;;4591032;19;19923;-34
2023/01/28 07:38:15;;;;;;;;;;;5.10;99.30;;;;;;4590188;19;19907;-33
2023/01/28 07:39:46;;;;;;;;;;;5.10;98.90;;;;;;4593482;19;20286;-34
2023/01/28 07:41:17;;;;;;;;;;;5.00;98.80;;;;;;4593397;19;19915;-33
2023/01/28 07:42:48;;;;;;;;;;;5.00;99.10;;;;;;4593104;19;19915;-34
2023/01/28 07:44:20;;;;;;;;;;;5.00;99.50;;;;;;4591504;19;19915;-35
2023/01/28 07:45:51;;;;;;;;;;;5.00;99.60;;;;;;4591712;19;19914;-33
2023/01/28 07:47:22;;;;;;;;;;;4.90;99.00;;;;;;4591410;19;20409;-33
2023/01/28 07:48:53;;;;;;;;;;;4.90;99.00;;;;;;4591409;19;19922;-35
2023/01/28 07:50:24;;;;;;;;;;;4.90;99.50;;;;;;4591036;19;19935;-33
2023/01/28 07:51:55;;;;;;;;;;;4.90;99.90;;;;;;4590377;19;19918;-33
2023/01/28 07:53:26;;;;;;;;;;;4.90;99.90;;;;;;4593183;19;20416;-33
2023/01/28 07:54:57;;;;;;;;;;;4.90;98.90;;;;;;4592651;19;19914;-34
2023/01/28 07:56:30;;;;;;;;;;;4.80;99.30;;;;;;4591089;19;19922;-34
2023/01/28 07:58:01;;;;;;;;;;;4.80;99.10;;;;;;4591159;19;19936;-34
2023/01/28 07:59:32;;;;;;;;;;;4.80;98.60;;;;;;4590481;19;19918;-34
2023/01/28 08:01:03;;;;;;;;;;;4.80;99.50;;;;;;4590121;19;19925;-34
2023/01/28 08:02:34;;;;;;;;;;;4.80;99.50;;;;;;4590149;19;19915;-33
2023/01/28 08:04:05;;;;;;;;;;;4.80;99.00;;;;;;4593060;19;19932;-37
2023/01/28 08:05:40;;;;;;;;;;;4.80;99.50;;;;;;4592691;19;19928;-34
2023/01/28 08:07:11;;;;;;;;;;;4.80;99.80;;;;;;4592162;19;19929;-34
2023/01/28 08:08:42;;;;;;;;;;;4.80;99.60;;;;;;4591846;19;19915;-34
2023/01/28 08:10:13;;;;;;;;;;;4.80;99.90;;;;;;4591411;19;19994;-33
2023/01/28 08:11:44;;;;;;;;;;;4.80;99.90;;;;;;4592308;19;19921;-35
2023/01/28 08:13:16;;;;;;;;;;;4.80;99.20;;;;;;4590519;19;19921;-34
2023/01/28 08:14:47;;;;;;;;;;;4.80;99.50;;;;;;4591300;19;19910;-34
2023/01/28 08:16:18;;;;;;;;;;;5.80;98.70;;;;;;4591894;19;20365;-34
2023/01/28 08:17:49;;;;;;;;;;;6.70;97.90;;;;;;4590372;19;20325;-36
2023/01/28 08:19:21;;;;;;;;;;;7.40;96.50;;;;;;4591800;19;19919;-35
2023/01/28 08:20:55;;;;;;;;;;;7.80;96.00;;;;;;4591722;19;19921;-34
2023/01/28 08:22:26;;;;;;;;;;;8.10;95.20;;;;;;4590870;19;19923;-36
2023/01/28 08:23:57;;;;;;;;;;;8.40;95.20;;;;;;4590949;19;19915;-34
2023/01/28 08:25:28;;;;;;;;;;;8.50;94.90;;;;;;4591420;19;19914;-36
2023/01/28 08:26:59;;;;;;;;;;;8.70;94.20;;;;;;4590242;19;19946;-35
2023/01/28 08:28:31;;;;;;;;;;;8.80;94.10;;;;;;4591710;19;19982;-34
2023/01/28 08:30:02;;;;;;;;;;;8.90;94.20;;;;;;4591374;19;19914;-35
2023/01/28 08:31:33;;;;;;;;;;;9.10;94.20;;;;;;4591886;19;20272;-36
2023/01/28 08:33:05;;;;;;;;;;;9.10;94.40;;;;;;4591650;19;19982;-36
2023/01/28 08:34:36;;;;;;;;;;;9.20;94.20;;;;;;4590293;19;20249;-34
2023/01/28 08:36:07;;;;;;;;;;;9.30;94.20;;;;;;4590796;19;19979;-36
2023/01/28 08:37:38;;;;;;;;;;;9.30;93.90;;;;;;4590561;19;19926;-36
2023/01/28 08:39:09;;;;;;;;;;;9.40;94.20;;;;;;4590598;19;20252;-37
2023/01/28 08:40:40;;;;;;;;;;;9.50;94.10;;;;;;4591087;19;20328;-36
2023/01/28 08:42:11;;;;;;;;;;;9.50;93.90;;;;;;4591987;19;19922;-34
2023/01/28 08:43:42;;;;;;;;;;;9.60;93.60;;;;;;4591501;19;20256;-35
2023/01/28 08:45:13;;;;;;;;;;;9.60;93.80;;;;;;4593501;19;19919;-35
2023/01/28 08:46:45;;;;;;;;;;;9.60;93.70;;;;;;4590813;19;20363;-34
2023/01/28 08:48:16;;;;;;;;;;;9.50;93.40;;;;;;4591188;19;19919;-35
2023/01/28 08:49:47;;;;;;;;;;;9.50;93.70;;;;;;4591472;19;19923;-36
2023/01/28 08:51:18;;;;;;;;;;;9.50;93.60;;;;;;4590350;19;19929;-35
2023/01/28 08:52:54;;;;;;;;;;;9.70;93.60;;;;;;4590491;19;19936;-34
2023/01/28 08:54:25;;;;;;;;;;;9.60;93.70;;;;;;4591534;19;19919;-35
2023/01/28 08:55:56;;;;;;;;;;;9.60;93.40;;;;;;4591651;19;19998;-34
2023/01/28 08:57:27;;;;;;;;;;;9.60;93.50;;;;;;4590301;19;19911;-36
2023/01/28 08:58:58;;;;;;;;;;;9.60;93.20;;;;;;4590788;19;19926;-36
2023/01/28 09:00:29;;;;;;;;;;;9.60;93.50;;;;;;4591121;19;19918;-33
2023/01/28 09:02:00;;;;;;;;;;;9.60;93.30;;;;;;4591228;19;19926;-36
2023/01/28 09:03:31;;;;;;;;;;;9.60;93.40;;;;;;4589509;19;19922;-36
2023/01/28 09:05:04;;;;;;;;;;;9.70;93.20;;;;;;4590241;19;19925;-34
2023/01/28 09:06:35;;;;;;;;;;;9.80;93.60;;;;;;4589640;19;19919;-34
2023/01/28 09:08:06;;;;;;;;;;;9.90;93.40;;;;;;4590470;19;19914;-35
2023/01/28 09:09:38;;;;;;;;;;;9.90;93.50;;;;;;4590626;19;19938;-35
2023/01/28 09:11:09;;;;;;;;;;;10.00;93.00;;;;;;4590973;19;20350;-36
2023/01/28 09:12:40;;;;;;;;;;;9.90;92.60;;;;;;4590776;19;19923;-36
2023/01/28 09:14:11;;;;;;;;;;;10.10;92.70;;;;;;4590281;19;19932;-35
2023/01/28 09:15:42;;;;;;;;;;;10.20;93.00;;;;;;4590838;19;19910;-34
2023/01/28 09:17:13;;;;;;;;;;;10.20;92.60;;;;;;4590059;19;19937;-35
2023/01/28 09:18:44;;;;;;;;;;;10.30;93.10;;;;;;4590783;19;19986;-36
2023/01/28 09:20:15;;;;;;;;;;;10.50;92.90;;;;;;4589473;19;20352;-36
2023/01/28 09:21:46;;;;;;;;;;;10.40;92.80;;;;;;4590373;19;19923;-36
2023/01/28 09:23:17;;;;;;;;;;;10.30;92.80;;;;;;4590732;19;20339;-34
2023/01/28 09:24:48;;;;;;;;;;;10.20;93.10;;;;;;4591255;19;19960;-35
2023/01/28 09:26:20;;;;;;;;;;;10.10;92.90;;;;;;4590472;19;19921;-35
2023/01/28 09:27:51;;;;;;;;;;;10.10;93.00;;;;;;4588971;19;19915;-36
2023/01/28 09:29:22;;;;;;;;;;;10.10;93.00;;;;;;4590247;19;19915;-35
2023/01/28 09:30:53;;;;;;;;;;;10.00;92.80;;;;;;4591340;19;19922;-35
2023/01/28 09:32:25;;;;;;;;;;;10.10;92.90;;;;;;4589032;19;19922;-36
2023/01/28 09:33:56;;;;;;;;;;;10.10;92.70;;;;;;4590447;19;20336;-36
2023/01/28 09:35:27;;;;;;;;;;;10.10;92.80;;;;;;4589985;19;19945;-37